sensor_id;sensor_type;location;lat;lon;timestamp;P1;durP1;ratioP1;P2;durP2;ratioP2
70927;SDS011;58587;53.034;18.576;2023-04-16T09:40:00;24.23;;;11.70;;
70927;SDS011;58587;53.034;18.576;2023-04-16T09:42:28;24.60;;;12.83;;
70927;SDS011;58587;53.034;18.576;2023-04-16T09:44:56;21.05;;;11.02;;
70927;SDS011;58587;53.034;18.576;2023-04-16T09:47:23;15.85;;;9.43;;
70927;SDS011;58587;53.034;18.576;2023-04-16T09:49:49;18.80;;;9.75;;
70927;SDS011;58587;53.034;18.576;2023-04-16T09:52:16;18.43;;;11.03;;
70927;SDS011;58587;53.034;18.576;2023-04-16T09:54:49;20.95;;;11.52;;
70927;SDS011;58587;53.034;18.576;2023-04-16T09:57:17;19.83;;;10.15;;
70927;SDS011;58587;53.034;18.576;2023-04-16T09:59:47;19.50;;;10.55;;
70927;SDS011;58587;53.034;18.576;2023-04-16T10:02:13;19.10;;;10.57;;
70927;SDS011;58587;53.034;18.576;2023-04-16T10:04:49;18.95;;;10.77;;
70927;SDS011;58587;53.034;18.576;2023-04-16T10:07:15;20.27;;;12.82;;
70927;SDS011;58587;53.034;18.576;2023-04-16T10:09:41;28.23;;;11.90;;
70927;SDS011;58587;53.034;18.576;2023-04-16T10:12:07;20.85;;;10.40;;
70927;SDS011;58587;53.034;18.576;2023-04-16T10:14:33;16.20;;;9.50;;
70927;SDS011;58587;53.034;18.576;2023-04-16T10:16:59;17.73;;;10.67;;
70927;SDS011;58587;53.034;18.576;2023-04-16T10:19:25;18.90;;;10.50;;
70927;SDS011;58587;53.034;18.576;2023-04-16T10:21:51;22.67;;;11.85;;
70927;SDS011;58587;53.034;18.576;2023-04-16T10:24:18;22.02;;;11.63;;
70927;SDS011;58587;53.034;18.576;2023-04-16T10:26:44;25.08;;;12.45;;
70927;SDS011;58587;53.034;18.576;2023-04-16T10:29:11;27.40;;;13.70;;
70927;SDS011;58587;53.034;18.576;2023-04-16T10:31:37;25.35;;;13.25;;
70927;SDS011;58587;53.034;18.576;2023-04-16T10:34:03;27.23;;;15.98;;
70927;SDS011;58587;53.034;18.576;2023-04-16T10:36:33;19.00;;;11.05;;
70927;SDS011;58587;53.034;18.576;2023-04-16T10:39:00;16.00;;;9.95;;
70927;SDS011;58587;53.034;18.576;2023-04-16T10:41:26;20.35;;;11.90;;
70927;SDS011;58587;53.034;18.576;2023-04-16T10:43:51;20.03;;;10.77;;
70927;SDS011;58587;53.034;18.576;2023-04-16T10:46:24;26.67;;;15.80;;
70927;SDS011;58587;53.034;18.576;2023-04-16T10:48:54;26.23;;;14.93;;
70927;SDS011;58587;53.034;18.576;2023-04-16T10:53:55;24.42;;;13.50;;
70927;SDS011;58587;53.034;18.576;2023-04-16T10:56:25;23.83;;;12.27;;
70927;SDS011;58587;53.034;18.576;2023-04-16T10:58:52;21.50;;;11.57;;
70927;SDS011;58587;53.034;18.576;2023-04-16T11:01:21;23.27;;;13.32;;
70927;SDS011;58587;53.034;18.576;2023-04-16T11:03:58;21.40;;;11.23;;
70927;SDS011;58587;53.034;18.576;2023-04-16T11:06:25;20.52;;;10.70;;
70927;SDS011;58587;53.034;18.576;2023-04-16T11:08:51;25.15;;;11.80;;
70927;SDS011;58587;53.034;18.576;2023-04-16T11:11:17;20.50;;;11.17;;
70927;SDS011;58587;53.034;18.576;2023-04-16T11:13:43;21.27;;;11.13;;
70927;SDS011;58587;53.034;18.576;2023-04-16T11:16:10;23.25;;;10.98;;
70927;SDS011;58587;53.034;18.576;2023-04-16T11:18:37;23.55;;;13.15;;
70927;SDS011;58587;53.034;18.576;2023-04-16T11:21:06;23.17;;;11.53;;
70927;SDS011;58587;53.034;18.576;2023-04-16T11:23:54;19.13;;;10.05;;
70927;SDS011;58587;53.034;18.576;2023-04-16T11:26:27;18.67;;;10.80;;
70927;SDS011;58587;53.034;18.576;2023-04-16T11:28:54;21.05;;;9.88;;
70927;SDS011;58587;53.034;18.576;2023-04-16T11:31:21;21.67;;;10.80;;
70927;SDS011;58587;53.034;18.576;2023-04-16T11:33:47;23.60;;;13.33;;
70927;SDS011;58587;53.034;18.576;2023-04-16T11:36:13;23.05;;;12.95;;
70927;SDS011;58587;53.034;18.576;2023-04-16T11:38:39;20.15;;;10.23;;
70927;SDS011;58587;53.034;18.576;2023-04-16T11:41:08;22.13;;;12.88;;
70927;SDS011;58587;53.034;18.576;2023-04-16T11:43:35;27.25;;;15.00;;
70927;SDS011;58587;53.034;18.576;2023-04-16T11:46:01;29.33;;;14.90;;
70927;SDS011;58587;53.034;18.576;2023-04-16T11:51:12;20.40;;;12.10;;
70927;SDS011;58587;53.034;18.576;2023-04-16T11:53:45;21.88;;;12.48;;
70927;SDS011;58587;53.034;18.576;2023-04-16T11:56:14;18.35;;;10.32;;
70927;SDS011;58587;53.034;18.576;2023-04-16T11:58:41;21.33;;;10.80;;
70927;SDS011;58587;53.034;18.576;2023-04-16T12:01:07;21.48;;;10.35;;
70927;SDS011;58587;53.034;18.576;2023-04-16T12:03:40;19.90;;;11.60;;
70927;SDS011;58587;53.034;18.576;2023-04-16T12:06:09;17.27;;;9.70;;
70927;SDS011;58587;53.034;18.576;2023-04-16T12:08:35;20.45;;;10.30;;
70927;SDS011;58587;53.034;18.576;2023-04-16T12:11:03;18.10;;;10.20;;
70927;SDS011;58587;53.034;18.576;2023-04-16T12:14:05;22.63;;;10.80;;
70927;SDS011;58587;53.034;18.576;2023-04-16T12:16:35;19.65;;;9.52;;
70927;SDS011;58587;53.034;18.576;2023-04-16T12:19:05;20.08;;;9.80;;
70927;SDS011;58587;53.034;18.576;2023-04-16T12:21:44;21.42;;;10.15;;
70927;SDS011;58587;53.034;18.576;2023-04-16T12:24:20;22.33;;;9.73;;
70927;SDS011;58587;53.034;18.576;2023-04-16T12:26:54;19.90;;;10.30;;
70927;SDS011;58587;53.034;18.576;2023-04-16T12:29:21;19.75;;;10.50;;
70927;SDS011;58587;53.034;18.576;2023-04-16T12:31:49;18.83;;;9.18;;
70927;SDS011;58587;53.034;18.576;2023-04-16T12:34:15;21.27;;;10.10;;
70927;SDS011;58587;53.034;18.576;2023-04-16T12:36:42;20.95;;;10.50;;
70927;SDS011;58587;53.034;18.576;2023-04-16T12:39:08;17.87;;;10.27;;
70927;SDS011;58587;53.034;18.576;2023-04-16T12:41:38;23.02;;;11.57;;
70927;SDS011;58587;53.034;18.576;2023-04-16T12:44:06;22.15;;;11.38;;
70927;SDS011;58587;53.034;18.576;2023-04-16T12:46:35;21.25;;;11.50;;
70927;SDS011;58587;53.034;18.576;2023-04-16T12:49:01;23.65;;;11.60;;
70927;SDS011;58587;53.034;18.576;2023-04-16T12:51:27;21.60;;;11.32;;
70927;SDS011;58587;53.034;18.576;2023-04-16T12:53:53;20.97;;;10.70;;
70927;SDS011;58587;53.034;18.576;2023-04-16T12:56:18;19.98;;;10.55;;
70927;SDS011;58587;53.034;18.576;2023-04-16T12:58:44;21.57;;;10.20;;
70927;SDS011;58587;53.034;18.576;2023-04-16T13:01:09;19.43;;;11.07;;
70927;SDS011;58587;53.034;18.576;2023-04-16T13:03:36;20.02;;;11.32;;
70927;SDS011;58587;53.034;18.576;2023-04-16T13:06:01;22.73;;;11.25;;
70927;SDS011;58587;53.034;18.576;2023-04-16T13:08:27;22.93;;;11.80;;
70927;SDS011;58587;53.034;18.576;2023-04-16T13:10:53;25.20;;;11.85;;
70927;SDS011;58587;53.034;18.576;2023-04-16T13:13:19;26.60;;;11.10;;
70927;SDS011;58587;53.034;18.576;2023-04-16T13:15:45;21.25;;;11.00;;
70927;SDS011;58587;53.034;18.576;2023-04-16T13:18:10;24.95;;;11.60;;
70927;SDS011;58587;53.034;18.576;2023-04-16T13:20:35;20.63;;;11.53;;
70927;SDS011;58587;53.034;18.576;2023-04-16T13:23:01;19.67;;;10.37;;
70927;SDS011;58587;53.034;18.576;2023-04-16T13:25:29;20.98;;;11.45;;
70927;SDS011;58587;53.034;18.576;2023-04-16T13:27:55;23.10;;;10.38;;
70927;SDS011;58587;53.034;18.576;2023-04-16T13:30:20;21.60;;;11.07;;
70927;SDS011;58587;53.034;18.576;2023-04-16T13:32:45;21.50;;;10.53;;
70927;SDS011;58587;53.034;18.576;2023-04-16T13:35:11;19.43;;;10.60;;
70927;SDS011;58587;53.034;18.576;2023-04-16T13:37:36;22.30;;;11.00;;
70927;SDS011;58587;53.034;18.576;2023-04-16T13:40:02;19.67;;;10.75;;
70927;SDS011;58587;53.034;18.576;2023-04-16T13:42:27;21.93;;;10.70;;
70927;SDS011;58587;53.034;18.576;2023-04-16T13:44:52;20.70;;;11.07;;
70927;SDS011;58587;53.034;18.576;2023-04-16T13:47:19;19.88;;;10.55;;
70927;SDS011;58587;53.034;18.576;2023-04-16T13:49:44;20.53;;;10.43;;
70927;SDS011;58587;53.034;18.576;2023-04-16T13:52:10;21.00;;;10.70;;
70927;SDS011;58587;53.034;18.576;2023-04-16T13:54:35;21.03;;;11.63;;
70927;SDS011;58587;53.034;18.576;2023-04-16T13:57:01;21.27;;;10.93;;
70927;SDS011;58587;53.034;18.576;2023-04-16T13:59:26;22.20;;;11.40;;
70927;SDS011;58587;53.034;18.576;2023-04-16T14:01:51;24.52;;;11.15;;
70927;SDS011;58587;53.034;18.576;2023-04-16T14:04:17;20.47;;;10.37;;
70927;SDS011;58587;53.034;18.576;2023-04-16T14:06:42;21.23;;;11.27;;
70927;SDS011;58587;53.034;18.576;2023-04-16T14:09:07;30.53;;;18.20;;
70927;SDS011;58587;53.034;18.576;2023-04-16T14:11:34;22.58;;;13.27;;
70927;SDS011;58587;53.034;18.576;2023-04-16T14:14:00;22.40;;;11.73;;
70927;SDS011;58587;53.034;18.576;2023-04-16T14:16:26;21.30;;;11.80;;
70927;SDS011;58587;53.034;18.576;2023-04-16T14:18:51;15.93;;;8.97;;
70927;SDS011;58587;53.034;18.576;2023-04-16T14:21:16;21.07;;;10.07;;
70927;SDS011;58587;53.034;18.576;2023-04-16T14:23:42;18.40;;;8.48;;
70927;SDS011;58587;53.034;18.576;2023-04-16T14:26:07;15.68;;;8.55;;
70927;SDS011;58587;53.034;18.576;2023-04-16T14:28:32;15.40;;;8.10;;
70927;SDS011;58587;53.034;18.576;2023-04-16T14:30:59;17.48;;;9.68;;
70927;SDS011;58587;53.034;18.576;2023-04-16T14:33:24;22.55;;;8.85;;
70927;SDS011;58587;53.034;18.576;2023-04-16T14:35:50;16.33;;;8.53;;
70927;SDS011;58587;53.034;18.576;2023-04-16T14:38:15;23.63;;;12.30;;
70927;SDS011;58587;53.034;18.576;2023-04-16T14:40:41;22.15;;;11.32;;
70927;SDS011;58587;53.034;18.576;2023-04-16T14:43:06;17.33;;;9.35;;
70927;SDS011;58587;53.034;18.576;2023-04-16T14:45:31;17.97;;;8.63;;
70927;SDS011;58587;53.034;18.576;2023-04-16T14:47:57;16.27;;;8.77;;
70927;SDS011;58587;53.034;18.576;2023-04-16T14:50:22;18.90;;;9.13;;
70927;SDS011;58587;53.034;18.576;2023-04-16T14:52:47;16.43;;;7.93;;
70927;SDS011;58587;53.034;18.576;2023-04-16T14:55:13;18.53;;;9.63;;
70927;SDS011;58587;53.034;18.576;2023-04-16T14:57:38;17.87;;;9.93;;
70927;SDS011;58587;53.034;18.576;2023-04-16T15:00:05;37.13;;;14.40;;
70927;SDS011;58587;53.034;18.576;2023-04-16T15:02:33;33.38;;;14.23;;
70927;SDS011;58587;53.034;18.576;2023-04-16T15:04:59;23.30;;;10.13;;
70927;SDS011;58587;53.034;18.576;2023-04-16T15:07:24;16.10;;;9.37;;
70927;SDS011;58587;53.034;18.576;2023-04-16T15:09:50;16.30;;;8.23;;
70927;SDS011;58587;53.034;18.576;2023-04-16T15:12:15;31.00;;;12.57;;
70927;SDS011;58587;53.034;18.576;2023-04-16T15:14:41;22.92;;;9.70;;
70927;SDS011;58587;53.034;18.576;2023-04-16T15:17:07;37.00;;;13.90;;
70927;SDS011;58587;53.034;18.576;2023-04-16T15:19:33;30.17;;;11.90;;
70927;SDS011;58587;53.034;18.576;2023-04-16T15:21:58;19.73;;;9.63;;
70927;SDS011;58587;53.034;18.576;2023-04-16T15:24:23;20.03;;;8.27;;
70927;SDS011;58587;53.034;18.576;2023-04-16T15:26:48;15.40;;;8.43;;
70927;SDS011;58587;53.034;18.576;2023-04-16T15:29:14;19.58;;;8.90;;
70927;SDS011;58587;53.034;18.576;2023-04-16T15:31:39;18.47;;;8.83;;
70927;SDS011;58587;53.034;18.576;2023-04-16T15:34:05;28.70;;;11.83;;
70927;SDS011;58587;53.034;18.576;2023-04-16T15:36:30;31.13;;;12.53;;
70927;SDS011;58587;53.034;18.576;2023-04-16T15:38:56;32.63;;;13.15;;
70927;SDS011;58587;53.034;18.576;2023-04-16T15:41:21;40.37;;;13.90;;
70927;SDS011;58587;53.034;18.576;2023-04-16T15:43:47;33.33;;;12.60;;
70927;SDS011;58587;53.034;18.576;2023-04-16T15:46:12;21.10;;;9.27;;
70927;SDS011;58587;53.034;18.576;2023-04-16T15:48:38;49.40;;;15.43;;
70927;SDS011;58587;53.034;18.576;2023-04-16T15:51:04;41.60;;;14.05;;
70927;SDS011;58587;53.034;18.576;2023-04-16T15:53:29;26.63;;;11.07;;
70927;SDS011;58587;53.034;18.576;2023-04-16T15:55:57;60.05;;;18.98;;
70927;SDS011;58587;53.034;18.576;2023-04-16T15:58:25;29.80;;;11.82;;
70927;SDS011;58587;53.034;18.576;2023-04-16T16:00:56;21.02;;;10.15;;
70927;SDS011;58587;53.034;18.576;2023-04-16T16:03:27;28.15;;;12.90;;
70927;SDS011;58587;53.034;18.576;2023-04-16T16:05:53;18.48;;;10.00;;
70927;SDS011;58587;53.034;18.576;2023-04-16T16:08:18;16.07;;;8.73;;
70927;SDS011;58587;53.034;18.576;2023-04-16T16:10:43;14.97;;;7.67;;
70927;SDS011;58587;53.034;18.576;2023-04-16T16:13:09;13.33;;;7.57;;
70927;SDS011;58587;53.034;18.576;2023-04-16T16:15:39;14.48;;;8.05;;
70927;SDS011;58587;53.034;18.576;2023-04-16T16:18:05;9.05;;;5.80;;
70927;SDS011;58587;53.034;18.576;2023-04-16T16:20:31;7.97;;;5.50;;
70927;SDS011;58587;53.034;18.576;2023-04-16T16:22:56;9.27;;;5.50;;
70927;SDS011;58587;53.034;18.576;2023-04-16T16:25:22;10.27;;;6.37;;
70927;SDS011;58587;53.034;18.576;2023-04-16T16:27:47;10.63;;;6.07;;
70927;SDS011;58587;53.034;18.576;2023-04-16T16:30:12;8.80;;;5.77;;
70927;SDS011;58587;53.034;18.576;2023-04-16T16:32:38;12.80;;;7.13;;
70927;SDS011;58587;53.034;18.576;2023-04-16T16:35:08;9.40;;;6.07;;
70927;SDS011;58587;53.034;18.576;2023-04-16T16:37:34;9.30;;;6.20;;
70927;SDS011;58587;53.034;18.576;2023-04-16T16:40:00;11.90;;;7.05;;
70927;SDS011;58587;53.034;18.576;2023-04-16T16:42:25;11.37;;;7.20;;
70927;SDS011;58587;53.034;18.576;2023-04-16T16:44:51;12.90;;;7.73;;
70927;SDS011;58587;53.034;18.576;2023-04-16T16:47:16;11.23;;;6.20;;
70927;SDS011;58587;53.034;18.576;2023-04-16T16:49:42;13.30;;;7.22;;
70927;SDS011;58587;53.034;18.576;2023-04-16T16:52:07;10.73;;;7.10;;
70927;SDS011;58587;53.034;18.576;2023-04-16T16:54:33;11.10;;;6.80;;
70927;SDS011;58587;53.034;18.576;2023-04-16T16:56:58;12.20;;;7.57;;
70927;SDS011;58587;53.034;18.576;2023-04-16T16:59:23;8.88;;;6.05;;
70927;SDS011;58587;53.034;18.576;2023-04-16T17:01:49;8.70;;;5.50;;
70927;SDS011;58587;53.034;18.576;2023-04-16T17:04:14;8.80;;;6.43;;
70927;SDS011;58587;53.034;18.576;2023-04-16T17:06:39;8.77;;;6.00;;
70927;SDS011;58587;53.034;18.576;2023-04-16T17:09:05;8.05;;;5.90;;
70927;SDS011;58587;53.034;18.576;2023-04-16T17:11:31;10.05;;;6.13;;
70927;SDS011;58587;53.034;18.576;2023-04-16T17:13:56;10.30;;;7.20;;
70927;SDS011;58587;53.034;18.576;2023-04-16T17:16:22;12.57;;;7.43;;
70927;SDS011;58587;53.034;18.576;2023-04-16T17:18:47;11.68;;;7.38;;
70927;SDS011;58587;53.034;18.576;2023-04-16T17:21:13;12.07;;;8.07;;
70927;SDS011;58587;53.034;18.576;2023-04-16T17:23:38;13.30;;;8.23;;
70927;SDS011;58587;53.034;18.576;2023-04-16T17:26:04;11.82;;;7.63;;
70927;SDS011;58587;53.034;18.576;2023-04-16T17:28:29;13.67;;;8.00;;
70927;SDS011;58587;53.034;18.576;2023-04-16T17:30:54;10.97;;;6.77;;
70927;SDS011;58587;53.034;18.576;2023-04-16T17:33:20;10.88;;;7.18;;
70927;SDS011;58587;53.034;18.576;2023-04-16T17:35:46;14.83;;;8.30;;
70927;SDS011;58587;53.034;18.576;2023-04-16T17:38:11;17.40;;;9.33;;
70927;SDS011;58587;53.034;18.576;2023-04-16T17:40:36;14.77;;;8.90;;
70927;SDS011;58587;53.034;18.576;2023-04-16T17:43:02;15.27;;;9.23;;
70927;SDS011;58587;53.034;18.576;2023-04-16T17:45:28;14.30;;;8.90;;
70927;SDS011;58587;53.034;18.576;2023-04-16T17:47:53;14.90;;;8.53;;
70927;SDS011;58587;53.034;18.576;2023-04-16T17:50:18;15.77;;;8.17;;
70927;SDS011;58587;53.034;18.576;2023-04-16T17:52:44;12.47;;;7.57;;
70927;SDS011;58587;53.034;18.576;2023-04-16T17:55:11;13.75;;;8.73;;
70927;SDS011;58587;53.034;18.576;2023-04-16T17:57:36;11.13;;;7.00;;
70927;SDS011;58587;53.034;18.576;2023-04-16T18:00:02;12.20;;;7.10;;
70927;SDS011;58587;53.034;18.576;2023-04-16T18:02:30;10.85;;;7.10;;
70927;SDS011;58587;53.034;18.576;2023-04-16T18:04:55;13.52;;;7.63;;
70927;SDS011;58587;53.034;18.576;2023-04-16T18:07:21;12.13;;;7.20;;
70927;SDS011;58587;53.034;18.576;2023-04-16T18:09:46;10.47;;;6.17;;
70927;SDS011;58587;53.034;18.576;2023-04-16T18:12:11;12.30;;;7.43;;
70927;SDS011;58587;53.034;18.576;2023-04-16T18:14:37;12.13;;;7.27;;
70927;SDS011;58587;53.034;18.576;2023-04-16T18:17:04;9.82;;;6.55;;
70927;SDS011;58587;53.034;18.576;2023-04-16T18:19:30;10.93;;;6.20;;
70927;SDS011;58587;53.034;18.576;2023-04-16T18:21:59;14.35;;;7.35;;
70927;SDS011;58587;53.034;18.576;2023-04-16T18:24:24;11.27;;;6.77;;
70927;SDS011;58587;53.034;18.576;2023-04-16T18:26:50;14.23;;;7.10;;
70927;SDS011;58587;53.034;18.576;2023-04-16T18:29:15;11.67;;;6.90;;
70927;SDS011;58587;53.034;18.576;2023-04-16T18:31:40;13.17;;;7.57;;
70927;SDS011;58587;53.034;18.576;2023-04-16T18:34:06;13.07;;;6.77;;
70927;SDS011;58587;53.034;18.576;2023-04-16T18:36:31;12.23;;;7.72;;
70927;SDS011;58587;53.034;18.576;2023-04-16T18:38:57;11.05;;;6.90;;
70927;SDS011;58587;53.034;18.576;2023-04-16T18:41:22;10.52;;;6.22;;
70927;SDS011;58587;53.034;18.576;2023-04-16T18:43:48;10.13;;;5.90;;
70927;SDS011;58587;53.034;18.576;2023-04-16T18:46:13;9.87;;;6.07;;
70927;SDS011;58587;53.034;18.576;2023-04-16T18:48:39;9.68;;;6.43;;
70927;SDS011;58587;53.034;18.576;2023-04-16T18:51:05;9.97;;;6.20;;
70927;SDS011;58587;53.034;18.576;2023-04-16T18:53:30;8.93;;;5.60;;
70927;SDS011;58587;53.034;18.576;2023-04-16T18:55:56;9.35;;;6.07;;
70927;SDS011;58587;53.034;18.576;2023-04-16T18:58:21;8.47;;;6.30;;
70927;SDS011;58587;53.034;18.576;2023-04-16T19:00:50;9.87;;;6.97;;
70927;SDS011;58587;53.034;18.576;2023-04-16T19:03:16;8.57;;;6.50;;
70927;SDS011;58587;53.034;18.576;2023-04-16T19:05:42;9.70;;;6.60;;
70927;SDS011;58587;53.034;18.576;2023-04-16T19:08:07;11.60;;;7.13;;
70927;SDS011;58587;53.034;18.576;2023-04-16T19:10:32;10.30;;;6.87;;
70927;SDS011;58587;53.034;18.576;2023-04-16T19:12:58;11.23;;;6.93;;
70927;SDS011;58587;53.034;18.576;2023-04-16T19:15:23;14.17;;;7.73;;
70927;SDS011;58587;53.034;18.576;2023-04-16T19:17:48;10.77;;;7.33;;
70927;SDS011;58587;53.034;18.576;2023-04-16T19:20:14;10.07;;;6.87;;
70927;SDS011;58587;53.034;18.576;2023-04-16T19:22:39;9.77;;;6.60;;
70927;SDS011;58587;53.034;18.576;2023-04-16T19:25:05;11.93;;;6.45;;
70927;SDS011;58587;53.034;18.576;2023-04-16T19:27:31;10.73;;;6.50;;
70927;SDS011;58587;53.034;18.576;2023-04-16T19:29:57;9.03;;;6.30;;
70927;SDS011;58587;53.034;18.576;2023-04-16T19:32:23;9.90;;;6.50;;
70927;SDS011;58587;53.034;18.576;2023-04-16T19:34:48;8.40;;;6.23;;
70927;SDS011;58587;53.034;18.576;2023-04-16T19:37:13;11.93;;;6.10;;
70927;SDS011;58587;53.034;18.576;2023-04-16T19:39:39;7.37;;;5.23;;
70927;SDS011;58587;53.034;18.576;2023-04-16T19:42:04;8.93;;;5.60;;
70927;SDS011;58587;53.034;18.576;2023-04-16T19:44:30;8.20;;;5.30;;
70927;SDS011;58587;53.034;18.576;2023-04-16T19:46:56;7.03;;;5.15;;
70927;SDS011;58587;53.034;18.576;2023-04-16T19:49:21;7.43;;;5.05;;
70927;SDS011;58587;53.034;18.576;2023-04-16T19:51:49;8.40;;;5.67;;
70927;SDS011;58587;53.034;18.576;2023-04-16T19:54:14;8.52;;;5.70;;
70927;SDS011;58587;53.034;18.576;2023-04-16T19:56:40;10.17;;;6.13;;
70927;SDS011;58587;53.034;18.576;2023-04-16T19:59:05;8.83;;;5.30;;
70927;SDS011;58587;53.034;18.576;2023-04-16T20:01:31;7.90;;;5.47;;
70927;SDS011;58587;53.034;18.576;2023-04-16T20:03:56;6.73;;;4.57;;
70927;SDS011;58587;53.034;18.576;2023-04-16T20:06:21;7.93;;;5.17;;
70927;SDS011;58587;53.034;18.576;2023-04-16T20:08:47;12.20;;;5.95;;
70927;SDS011;58587;53.034;18.576;2023-04-16T20:11:13;7.10;;;4.60;;
70927;SDS011;58587;53.034;18.576;2023-04-16T20:13:38;6.93;;;4.53;;
70927;SDS011;58587;53.034;18.576;2023-04-16T20:16:04;9.00;;;4.80;;
70927;SDS011;58587;53.034;18.576;2023-04-16T20:18:29;7.03;;;4.30;;
70927;SDS011;58587;53.034;18.576;2023-04-16T20:20:55;7.27;;;5.10;;
70927;SDS011;58587;53.034;18.576;2023-04-16T20:23:20;7.23;;;4.90;;
70927;SDS011;58587;53.034;18.576;2023-04-16T20:25:45;9.17;;;5.20;;
70927;SDS011;58587;53.034;18.576;2023-04-16T20:28:11;6.75;;;5.10;;
70927;SDS011;58587;53.034;18.576;2023-04-16T20:30:38;9.43;;;6.25;;
70927;SDS011;58587;53.034;18.576;2023-04-16T20:33:04;8.23;;;5.60;;
70927;SDS011;58587;53.034;18.576;2023-04-16T20:35:30;11.00;;;6.70;;
70927;SDS011;58587;53.034;18.576;2023-04-16T20:37:56;9.33;;;5.90;;
70927;SDS011;58587;53.034;18.576;2023-04-16T20:40:21;9.23;;;5.77;;
70927;SDS011;58587;53.034;18.576;2023-04-16T20:42:48;7.82;;;5.30;;
70927;SDS011;58587;53.034;18.576;2023-04-16T20:45:16;9.18;;;5.10;;
70927;SDS011;58587;53.034;18.576;2023-04-16T20:47:44;9.77;;;5.45;;
70927;SDS011;58587;53.034;18.576;2023-04-16T20:50:10;8.20;;;5.43;;
70927;SDS011;58587;53.034;18.576;2023-04-16T20:52:36;7.73;;;5.17;;
70927;SDS011;58587;53.034;18.576;2023-04-16T20:55:01;8.43;;;5.28;;
70927;SDS011;58587;53.034;18.576;2023-04-16T20:57:27;7.73;;;5.43;;
70927;SDS011;58587;53.034;18.576;2023-04-16T20:59:53;9.98;;;5.50;;
70927;SDS011;58587;53.034;18.576;2023-04-16T21:02:19;9.33;;;5.47;;
70927;SDS011;58587;53.034;18.576;2023-04-16T21:04:45;8.13;;;5.82;;
70927;SDS011;58587;53.034;18.576;2023-04-16T21:07:11;8.57;;;5.37;;
70927;SDS011;58587;53.034;18.576;2023-04-16T21:09:36;9.43;;;6.00;;
70927;SDS011;58587;53.034;18.576;2023-04-16T21:12:01;9.45;;;5.75;;
70927;SDS011;58587;53.034;18.576;2023-04-16T21:14:26;10.40;;;5.93;;
70927;SDS011;58587;53.034;18.576;2023-04-16T21:16:52;34.73;;;10.43;;
70927;SDS011;58587;53.034;18.576;2023-04-16T21:19:18;26.48;;;9.43;;
70927;SDS011;58587;53.034;18.576;2023-04-16T21:21:44;54.00;;;15.00;;
70927;SDS011;58587;53.034;18.576;2023-04-16T21:24:09;31.13;;;10.23;;
70927;SDS011;58587;53.034;18.576;2023-04-16T21:26:34;45.40;;;13.77;;
70927;SDS011;58587;53.034;18.576;2023-04-16T21:29:00;55.03;;;17.47;;
70927;SDS011;58587;53.034;18.576;2023-04-16T21:31:25;34.03;;;12.30;;
70927;SDS011;58587;53.034;18.576;2023-04-16T21:33:51;22.77;;;10.38;;
70927;SDS011;58587;53.034;18.576;2023-04-16T21:36:16;24.67;;;11.20;;
70927;SDS011;58587;53.034;18.576;2023-04-16T21:38:41;17.60;;;9.50;;
70927;SDS011;58587;53.034;18.576;2023-04-16T21:41:10;13.23;;;8.05;;
70927;SDS011;58587;53.034;18.576;2023-04-16T21:43:35;16.07;;;8.27;;
70927;SDS011;58587;53.034;18.576;2023-04-16T21:46:00;13.80;;;8.03;;
70927;SDS011;58587;53.034;18.576;2023-04-16T21:48:26;29.67;;;14.57;;
70927;SDS011;58587;53.034;18.576;2023-04-16T21:50:55;11.63;;;7.35;;
70927;SDS011;58587;53.034;18.576;2023-04-16T21:53:22;10.75;;;6.72;;
70927;SDS011;58587;53.034;18.576;2023-04-16T21:55:48;12.63;;;7.00;;
70927;SDS011;58587;53.034;18.576;2023-04-16T21:58:13;15.37;;;9.00;;
70927;SDS011;58587;53.034;18.576;2023-04-16T22:00:39;19.67;;;9.73;;
70927;SDS011;58587;53.034;18.576;2023-04-16T22:03:04;19.40;;;8.82;;
70927;SDS011;58587;53.034;18.576;2023-04-16T22:05:30;18.60;;;8.90;;
70927;SDS011;58587;53.034;18.576;2023-04-16T22:07:57;17.97;;;9.00;;
70927;SDS011;58587;53.034;18.576;2023-04-16T22:10:22;15.35;;;7.53;;
70927;SDS011;58587;53.034;18.576;2023-04-16T22:12:47;28.87;;;11.47;;
70927;SDS011;58587;53.034;18.576;2023-04-16T22:15:13;30.30;;;11.40;;
70927;SDS011;58587;53.034;18.576;2023-04-16T22:17:39;27.93;;;10.77;;
70927;SDS011;58587;53.034;18.576;2023-04-16T22:20:05;13.60;;;7.10;;
70927;SDS011;58587;53.034;18.576;2023-04-16T22:22:38;15.55;;;8.38;;
70927;SDS011;58587;53.034;18.576;2023-04-16T22:25:07;15.85;;;7.70;;
70927;SDS011;58587;53.034;18.576;2023-04-16T22:27:33;13.85;;;7.40;;
70927;SDS011;58587;53.034;18.576;2023-04-16T22:29:59;13.00;;;6.82;;
70927;SDS011;58587;53.034;18.576;2023-04-16T22:32:25;12.68;;;6.57;;
70927;SDS011;58587;53.034;18.576;2023-04-16T22:34:51;8.63;;;5.40;;
70927;SDS011;58587;53.034;18.576;2023-04-16T22:37:16;8.80;;;5.57;;
70927;SDS011;58587;53.034;18.576;2023-04-16T22:39:41;7.53;;;4.93;;
70927;SDS011;58587;53.034;18.576;2023-04-16T22:42:06;6.83;;;4.23;;
70927;SDS011;58587;53.034;18.576;2023-04-16T22:44:32;6.23;;;4.50;;
70927;SDS011;58587;53.034;18.576;2023-04-16T22:46:57;7.28;;;4.50;;
70927;SDS011;58587;53.034;18.576;2023-04-16T22:49:23;6.43;;;4.03;;
70927;SDS011;58587;53.034;18.576;2023-04-16T22:51:48;9.47;;;5.27;;
70927;SDS011;58587;53.034;18.576;2023-04-16T22:54:14;9.93;;;5.07;;
70927;SDS011;58587;53.034;18.576;2023-04-16T22:56:39;9.52;;;5.60;;
70927;SDS011;58587;53.034;18.576;2023-04-16T22:59:05;6.47;;;4.32;;
70927;SDS011;58587;53.034;18.576;2023-04-16T23:01:31;5.60;;;4.23;;
70927;SDS011;58587;53.034;18.576;2023-04-16T23:03:57;9.23;;;5.00;;
70927;SDS011;58587;53.034;18.576;2023-04-16T23:06:22;8.33;;;5.00;;
70927;SDS011;58587;53.034;18.576;2023-04-16T23:08:48;7.17;;;4.47;;
70927;SDS011;58587;53.034;18.576;2023-04-16T23:11:13;10.80;;;7.28;;
70927;SDS011;58587;53.034;18.576;2023-04-16T23:13:39;10.60;;;6.17;;
70927;SDS011;58587;53.034;18.576;2023-04-16T23:16:04;9.30;;;5.43;;
70927;SDS011;58587;53.034;18.576;2023-04-16T23:18:30;8.32;;;5.40;;
70927;SDS011;58587;53.034;18.576;2023-04-16T23:20:56;9.80;;;5.40;;
70927;SDS011;58587;53.034;18.576;2023-04-16T23:23:21;10.10;;;5.67;;
70927;SDS011;58587;53.034;18.576;2023-04-16T23:25:46;8.73;;;5.13;;
70927;SDS011;58587;53.034;18.576;2023-04-16T23:28:12;7.20;;;4.47;;
70927;SDS011;58587;53.034;18.576;2023-04-16T23:30:37;9.00;;;5.53;;
70927;SDS011;58587;53.034;18.576;2023-04-16T23:33:02;9.30;;;5.63;;
70927;SDS011;58587;53.034;18.576;2023-04-16T23:35:28;9.87;;;5.07;;
70927;SDS011;58587;53.034;18.576;2023-04-16T23:37:53;9.00;;;5.07;;
70927;SDS011;58587;53.034;18.576;2023-04-16T23:40:19;10.17;;;6.17;;
70927;SDS011;58587;53.034;18.576;2023-04-16T23:42:44;11.00;;;6.13;;
70927;SDS011;58587;53.034;18.576;2023-04-16T23:45:10;10.70;;;5.93;;
70927;SDS011;58587;53.034;18.576;2023-04-16T23:47:35;13.93;;;7.47;;
70927;SDS011;58587;53.034;18.576;2023-04-16T23:50:01;16.07;;;7.30;;
70927;SDS011;58587;53.034;18.576;2023-04-16T23:52:26;11.73;;;6.73;;
70927;SDS011;58587;53.034;18.576;2023-04-16T23:54:51;9.97;;;6.03;;
70927;SDS011;58587;53.034;18.576;2023-04-16T23:57:17;10.57;;;6.37;;
70927;SDS011;58587;53.034;18.576;2023-04-16T23:59:42;12.90;;;7.30;;